createdAt,value
2017-01-09T17:31:32.661Z,68.52
2017-01-09T17:32:48.373Z,69
2017-01-09T17:34:03.171Z,68.81
2017-01-09T17:35:18.917Z,69.09
2017-01-09T17:36:32.879Z,68.81
2017-01-09T17:37:46.577Z,69.13
2017-01-09T17:39:00.896Z,69.03
2017-01-09T17:40:15.631Z,68.94
2017-01-09T17:41:29.596Z,68.65
2017-01-09T17:42:44.477Z,68.94
2017-01-09T17:43:55.371Z,69.13
2017-01-09T17:45:05.679Z,68.9
2017-01-09T17:46:15.943Z,68.9
2017-01-09T17:47:25.407Z,69.09
2017-01-09T17:48:35.748Z,69.09
2017-01-09T17:49:46.043Z,69
2017-01-09T17:50:55.978Z,69.09
2017-01-09T17:52:06.225Z,69.38
2017-01-09T17:53:15.670Z,69.47
2017-01-09T17:54:25.092Z,69.47
2017-01-09T17:55:34.928Z,69.66
2017-01-09T17:56:44.778Z,69.38
2017-01-09T17:57:55.039Z,69.57
2017-01-09T17:59:04.886Z,69.95
2017-01-09T18:00:14.351Z,69.85
2017-01-09T18:01:24.811Z,69.95
2017-01-09T18:02:35.054Z,69.09
2017-01-09T18:03:45.360Z,69.47
2017-01-09T18:04:55.795Z,69.85
2017-01-09T18:06:06.080Z,69.76
2017-01-09T18:07:15.915Z,69.66
2017-01-09T18:08:25.822Z,69.76
2017-01-09T18:09:35.673Z,70.04
2017-01-09T18:10:45.982Z,69.95
2017-01-09T18:11:57.431Z,69.76
2017-01-09T18:13:07.290Z,70.14
2017-01-09T18:14:17.669Z,70.23
2017-01-09T18:15:27.973Z,70.04
2017-01-09T18:16:38.254Z,69.85
2017-01-09T18:17:48.569Z,69.6
2017-01-09T18:18:58.424Z,69.7
2017-01-09T18:20:08.689Z,70.04
2017-01-09T18:21:18.969Z,70.23
2017-01-09T18:22:29.228Z,70.61
2017-01-09T18:23:39.132Z,70.7
2017-01-09T18:24:49.560Z,70.51
2017-01-09T18:25:59.810Z,70.42
2017-01-09T18:27:10.180Z,70.42
2017-01-09T18:28:20.132Z,70.51
2017-01-09T18:29:30.026Z,70.23
2017-01-09T18:30:40.277Z,70.32
2017-01-09T18:31:50.574Z,70.36
2017-01-09T18:33:01.027Z,70.55
2017-01-09T18:34:11.385Z,70.14
2017-01-09T18:35:21.381Z,70.14
2017-01-09T18:36:31.660Z,70.55
2017-01-09T18:37:41.514Z,70.64
2017-01-09T18:38:51.799Z,70.55
2017-01-09T18:40:02.178Z,70.45
2017-01-09T18:41:12.153Z,71.08
2017-01-09T18:42:22.527Z,70.55
2017-01-09T18:43:32.889Z,70.98
2017-01-09T18:44:43.149Z,70.89
2017-01-09T18:45:53.436Z,71.08
2017-01-09T18:47:03.723Z,71.12
2017-01-09T18:48:13.978Z,71.55
2017-01-09T18:49:24.240Z,71.55
2017-01-09T18:50:34.507Z,71.27
2017-01-09T18:51:44.406Z,71.84
2017-01-09T18:52:54.258Z,71.84
2017-01-09T18:54:04.538Z,71.55
2017-01-09T18:55:14.069Z,71.74
2017-01-09T18:56:24.352Z,71.84
2017-01-09T18:57:34.779Z,71.65
2017-01-09T18:58:45.083Z,71.74
2017-01-09T18:59:55.362Z,72.03
2017-01-09T19:01:05.205Z,72.22
2017-01-09T19:02:15.499Z,72.12
2017-01-09T19:03:25.756Z,71.93
2017-01-09T19:04:35.621Z,71.93
2017-01-09T19:05:45.884Z,72.22
2017-01-09T19:06:55.332Z,72.03
2017-01-09T19:08:05.216Z,72.5
2017-01-09T19:09:15.458Z,72.41
2017-01-09T19:10:25.750Z,72.41
2017-01-09T19:11:36.009Z,72.12
2017-01-09T19:12:46.411Z,72.69
2017-01-09T19:13:56.719Z,72.31
2017-01-09T19:15:06.947Z,72.6
2017-01-09T19:16:16.780Z,72.69
2017-01-09T19:17:27.082Z,72.88
2017-01-09T19:18:37.350Z,72.78
2017-01-09T19:19:47.628Z,72.88
2017-01-09T19:20:58.010Z,72.78
